Latest Weather Observations for Port Macquarie Airport

IDN60801

Issued at 9:05 pm EDT Saturday 1 November 2014 (issued every 30 minutes, with the page automatically refreshed every 10 minutes)

About weather observations | Map of weather stations | Latest weather observations for NSW | Other Formats
Station Details ID: 060139 Name: PORT MACQUARIE AIRPORT AWS Lat: -31.43 Lon: 152.87 Height: 4.2 m
Data from the previous 72 hours. | See also: Recent months at Port Macquarie Airport
Date/Time
EDT
Temp
°C
App
Temp
°C
Dew
Point
Rel
Hum
%
Delta-T
°C
Wind Press
QNH
hPa
Press
MSL
hPa
Rain
since 9 am
mm
Dir
 
Spd
km/h
Gust
km/h
Spd
kts
Gust
kts
01/09:00pm 24.8 25.4 18.5 68 4.0 NNE 13 20 7 11 1005.4 1005.4 0.0
01/08:30pm 24.3 25.5 19.1 73 3.3 NE 11 13 6 7 1005.7 1005.7 0.0
01/08:00pm 25.0 25.1 18.4 66 4.2 N 15 20 8 11 1005.2 1005.2 0.0
01/07:55pm 25.1 24.4 18.3 66 4.3 N 19 28 10 15 1004.5 1004.5 0.0
01/07:30pm 25.5 24.7 17.9 63 4.8 NNE 19 28 10 15 1002.5 1002.5 0.0
01/07:00pm 26.1 25.1 18.0 61 5.1 NNE 20 32 11 17 1001.8 1001.8 0.0
01/06:30pm 27.1 26.0 17.8 56 5.9 NNE 20 30 11 16 1001.2 1001.2 0.0
01/06:00pm 28.4 26.2 17.9 53 6.7 NNE 26 33 14 18 1000.9 1000.9 0.0
01/05:30pm 26.0 25.7 17.4 59 5.4 E 15 20 8 11 1000.3 1000.3 0.0
01/05:00pm 27.2 25.9 18.2 58 5.7 NE 22 28 12 15 1000.0 1000.0 0.0
01/04:30pm 27.6 26.7 18.3 57 5.9 ENE 20 30 11 16 1000.0 1000.0 0.0
01/04:00pm 29.1 27.8 17.3 49 7.5 NE 20 28 11 15 1000.3 1000.3 0.0
01/03:30pm 31.2 29.8 17.9 45 8.5 ENE 22 32 12 17 1000.5 1000.5 0.0
01/03:00pm 31.9 29.9 17.4 42 9.3 ENE 24 33 13 18 1000.7 1000.7 0.0
01/02:30pm 34.2 32.8 17.0 36 11.0 NE 20 30 11 16 1001.3 1001.3 0.0
01/02:00pm 36.1 33.6 15.2 28 13.1 N 22 33 12 18 1002.1 1002.1 0.0
01/01:30pm 35.9 33.0 15.1 29 13.1 N 24 35 13 19 1002.8 1002.8 0.0
01/01:00pm 35.6 32.8 15.3 29 12.8 NNW 24 32 13 17 1003.7 1003.7 0.0
01/12:30pm 33.4 31.1 15.8 34 11.0 N 22 32 12 17 1004.2 1004.2 0.0
01/12:00pm 32.2 30.1 16.1 38 10.1 N 22 35 12 19 1005.2 1005.2 0.0
01/11:30am 31.0 29.6 17.0 43 8.9 N 20 28 11 15 1006.2 1006.2 0.0
01/11:00am 29.8 26.8 16.9 45 8.1 N 28 37 15 20 1006.7 1006.7 0.0
01/10:30am 28.6 26.4 16.8 48 7.4 N 24 33 13 18 1007.1 1007.1 0.0
01/10:00am 27.5 24.6 16.1 49 7.0 N 26 32 14 17 1007.6 1007.6 0.0
01/09:30am 27.0 25.8 16.0 51 6.8 N 17 22 9 12 1007.8 1007.8 0.0
01/09:00am 26.9 24.6 14.6 46 7.4 N 20 28 11 15 1008.0 1008.0 0.0
01/08:30am 27.2 24.6 14.9 47 7.4 N 22 35 12 19 1008.3 1008.3 0.0
01/08:00am 24.6 24.9 17.1 63 4.7 N 11 17 6 9 1009.0 1009.0 0.0
01/07:30am 21.8 24.9 18.6 82 2.0 CALM 0 0 0 0 1009.6 1009.6 0.0
01/07:00am 21.6 21.7 18.4 82 2.0 N 15 19 8 10 1009.6 1009.6 0.0
01/06:30am 20.9 20.5 18.8 88 1.3 N 19 26 10 14 1009.8 1009.8 0.0
01/06:00am 20.7 20.6 18.8 89 1.2 N 17 22 9 12 1009.4 1009.4 0.0
01/05:30am 20.7 21.8 18.8 89 1.2 N 11 17 6 9 1008.4 1008.4 0.0
01/05:00am 20.7 21.8 18.8 89 1.2 N 11 19 6 10 1008.4 1008.4 0.0
01/04:30am 20.5 20.5 19.0 91 0.9 N 17 20 9 11 1008.2 1008.2 0.0
01/04:00am 20.7 21.6 19.2 91 0.9 N 13 17 7 9 1008.5 1008.5 0.0
01/03:30am 20.7 22.3 19.2 91 0.9 N 9 11 5 6 1008.5 1008.5 0.0
01/03:00am 20.9 22.2 19.4 91 1.0 N 11 15 6 8 1008.6 1008.6 0.0
01/02:30am 21.0 22.3 19.3 90 1.1 N 11 17 6 9 1008.8 1008.8 0.0
01/02:00am 21.0 22.3 19.3 90 1.1 N 11 17 6 9 1009.1 1009.1 0.0
01/01:30am 21.1 22.1 19.4 90 1.1 N 13 19 7 10 1009.3 1009.3 0.0
01/01:00am 21.0 22.6 19.1 89 1.2 N 9 13 5 7 1009.8 1009.8 0.0
01/12:30am 21.1 23.0 19.0 88 1.3 N 7 9 4 5 1009.9 1009.9 0.0
01/12:00am 21.4 22.2 19.1 87 1.5 N 13 17 7 9 1010.4 1010.4 0.0
 
Date/Time
EDT
Temp
°C
App
Temp
°C
Dew
Point
Rel
Hum
%
Delta-T
°C
Wind Press
QNH
hPa
Press
MSL
hPa
Rain
since 9 am
mm
Dir
 
Spd
km/h
Gust
km/h
Spd
kts
Gust
kts
31/11:30pm 21.7 22.5 19.1 85 1.6 NNE 13 15 7 8 1010.2 1010.2 0.0
31/11:00pm 21.9 22.7 19.1 84 1.8 N 13 15 7 8 1010.7 1010.7 0.0
31/10:30pm 22.3 22.5 19.3 83 1.9 N 17 22 9 12 1010.7 1010.7 0.0
31/10:00pm 22.5 22.4 19.5 83 1.9 N 19 24 10 13 1010.8 1010.8 0.0
31/09:30pm 22.8 21.8 19.6 82 2.0 N 24 33 13 18 1010.9 1010.9 0.0
31/09:00pm 22.9 22.7 19.7 82 2.1 NNE 20 28 11 15 1010.8 1010.8 0.0
31/08:30pm 22.6 22.7 19.9 85 1.7 NNE 19 26 10 14 1010.5 1010.5 0.0
31/08:00pm 22.6 23.0 19.9 85 1.7 NNE 17 22 9 12 1010.3 1010.3 0.0
31/07:30pm 22.8 23.7 20.1 85 1.7 NNE 15 20 8 11 1010.2 1010.2 0.0
31/07:00pm 23.3 24.6 20.2 83 2.0 NNE 13 19 7 10 1010.3 1010.3 0.0
31/06:30pm 24.0 24.5 20.1 79 2.5 NNE 17 22 9 12 1009.9 1009.9 0.0
31/06:00pm 25.1 25.6 20.1 74 3.2 NNE 17 26 9 14 1009.8 1009.8 0.0
31/05:30pm 25.0 24.2 20.0 74 3.2 NE 24 32 13 17 1009.6 1009.6 0.0
31/05:00pm 25.7 24.6 20.3 72 3.5 NNE 26 35 14 19 1009.5 1009.5 0.0
31/04:30pm 25.9 23.6 20.2 71 3.7 NNE 32 41 17 22 1009.4 1009.4 0.0
31/04:09pm 25.8 24.1 19.7 69 3.9 NNE 28 46 15 25 1009.5 1009.5 0.0
31/04:00pm 26.4 24.8 20.0 68 4.2 NNE 28 44 15 24 1009.6 1009.6 0.0
31/03:30pm 26.9 24.8 19.8 65 4.6 NNE 30 46 16 25 1009.7 1009.7 0.0
31/03:20pm 26.6 24.5 19.0 63 4.9 NE 28 46 15 25 1009.8 1009.8 0.0
31/03:00pm 26.7 24.7 19.1 63 4.9 NE 28 37 15 20 1010.1 1010.1 0.0
31/02:30pm 27.3 26.3 18.9 60 5.4 NE 22 37 12 20 1010.6 1010.6 0.0
31/02:00pm 26.2 24.0 18.8 63 4.7 ENE 28 35 15 19 1011.2 1011.2 0.0
31/01:30pm 27.0 25.6 18.8 60 5.3 ENE 24 30 13 16 1011.8 1011.8 0.0
31/01:00pm 26.2 24.9 19.1 65 4.6 ENE 24 32 13 17 1012.3 1012.3 0.0
31/12:30pm 26.9 26.0 19.8 65 4.6 ENE 24 30 13 16 1012.7 1012.7 0.0
31/12:00pm 26.0 25.1 18.2 62 4.9 E 20 26 11 14 1013.1 1013.1 0.0
31/11:30am 25.6 25.3 18.3 64 4.6 ENE 17 20 9 11 1013.6 1013.6 0.0
31/11:00am 24.8 24.6 18.5 68 4.0 ENE 17 20 9 11 1014.0 1014.0 0.0
31/10:30am 24.9 24.9 18.1 66 4.3 ENE 15 19 8 10 1014.2 1014.2 0.0
31/10:00am 24.1 24.7 17.6 67 4.0 ENE 11 15 6 8 1014.5 1014.5 0.0
31/09:30am 23.9 25.4 18.1 70 3.6 NNE 7 13 4 7 1014.6 1014.6 0.0
31/09:00am 21.9 22.4 16.6 72 3.2 NNE 9 13 5 7 1014.8 1014.8 0.0
31/08:30am 20.0 20.8 15.8 77 2.5 N 6 11 3 6 1014.9 1014.9 0.0
31/08:00am 18.6 20.8 16.4 87 1.3 CALM 0 0 0 0 1014.8 1014.8 0.0
31/07:30am 17.2 19.3 16.2 94 0.6 CALM 0 0 0 0 1014.8 1014.8 0.0
31/07:00am 15.5 17.1 15.0 97 0.3 CALM 0 0 0 0 1014.5 1014.5 0.0
31/06:30am 13.2 14.0 12.4 95 0.4 CALM 0 0 0 0 1014.4 1014.4 0.0
31/06:05am 12.7 13.3 11.8 94 0.5 CALM 0 0 0 0 1014.3 1014.3 0.0
31/06:00am 12.5 13.0 11.6 94 0.5 CALM 0 0 0 0 1014.2 1014.2 0.0
31/05:30am 12.8 13.4 11.9 94 0.5 CALM 0 0 0 0 1013.9 1013.9 0.0
31/05:14am 13.2 13.8 11.9 92 0.7 CALM 0 0 0 0 1013.8 1013.8 0.0
31/05:00am 13.6 14.4 12.5 93 0.6 CALM 0 0 0 0 1013.5 1013.5 0.0
31/04:54am 13.6 14.3 12.3 92 0.7 CALM 0 0 0 0 1013.5 1013.5 0.0
31/04:30am 14.1 15.0 12.8 92 0.7 CALM 0 0 0 0 1013.4 1013.4 0.0
31/04:00am 15.0 16.2 13.9 93 0.6 CALM 0 0 0 0 1013.4 1013.4 0.0
31/03:53am 14.6 15.6 13.3 92 0.7 CALM 0 0 0 0 1013.4 1013.4 0.0
31/03:30am 15.1 15.2 13.8 92 0.7 NW 6 7 3 4 1013.4 1013.4 0.0
31/03:00am 16.5 17.1 15.4 93 0.6 NNW 6 9 3 5 1013.5 1013.5 0.0
31/02:30am 17.4 17.8 16.4 94 0.6 N 9 11 5 6 1013.7 1013.7 0.0
31/02:00am 17.4 17.9 16.6 95 0.5 N 9 11 5 6 1013.9 1013.9 0.0
31/01:30am 16.8 17.4 15.3 91 0.9 N 6 9 3 5 1014.2 1014.2 0.0
31/01:00am 18.4 19.1 16.2 87 1.3 N 7 9 4 5 1014.4 1014.4 0.0
31/12:30am 19.2 19.4 16.8 86 1.4 N 11 15 6 8 1014.6 1014.6 0.0
31/12:00am 19.8 20.6 17.2 85 1.6 NE 9 13 5 7 1014.8 1014.8 0.0
 
Date/Time
EDT
Temp
°C
App
Temp
°C
Dew
Point
Rel
Hum
%
Delta-T
°C
Wind Press
QNH
hPa
Press
MSL
hPa
Rain
since 9 am
mm
Dir
 
Spd
km/h
Gust
km/h
Spd
kts
Gust
kts
30/11:30pm 20.2 21.1 17.6 85 1.6 NE 9 11 5 6 1014.9 1014.9 0.0
30/11:00pm 20.5 21.6 17.9 85 1.6 NE 9 17 5 9 1014.9 1014.9 0.0
30/10:30pm 20.8 21.9 18.0 84 1.7 NE 9 13 5 7 1014.9 1014.9 0.0
30/10:00pm 20.8 21.4 17.6 82 2.0 NNE 11 15 6 8 1014.7 1014.7 0.0
30/09:30pm 20.8 21.6 17.4 81 2.1 NNE 9 15 5 8 1014.7 1014.7 0.0
30/09:00pm 20.9 21.3 17.3 80 2.2 NNE 11 15 6 8 1014.4 1014.4 0.0
30/08:30pm 21.1 21.1 17.1 78 2.4 N 13 19 7 10 1014.2 1014.2 0.0
30/08:00pm 21.8 21.7 17.0 74 2.9 NNE 13 19 7 10 1014.0 1014.0 0.0
30/07:30pm 22.1 21.1 16.6 71 3.3 NNE 17 20 9 11 1013.6 1013.6 0.0
30/07:00pm 22.5 21.4 16.3 68 3.8 NNE 17 24 9 13 1013.2 1013.2 0.0
30/06:30pm 22.9 21.3 16.0 65 4.2 NNE 19 24 10 13 1013.0 1013.0 0.0
30/06:00pm 23.3 22.4 15.9 63 4.5 NE 15 20 8 11 1012.7 1012.7 0.0
30/05:30pm 23.7 23.2 16.0 62 4.7 NE 13 20 7 11 1012.4 1012.4 0.0
30/05:00pm 24.4 22.8 16.6 61 4.8 NE 20 28 11 15 1012.1 1012.1 0.0
30/04:30pm 25.4 23.8 16.5 58 5.5 NE 20 28 11 15 1011.9 1011.9 0.0
30/04:00pm 25.1 23.6 17.8 64 4.6 NE 22 30 12 16 1011.9 1011.9 0.0
30/03:30pm 25.1 23.3 17.8 64 4.6 NE 24 32 13 17 1012.0 1012.0 0.0
30/03:00pm 25.3 22.8 17.2 61 5.0 ENE 26 32 14 17 1012.3 1012.3 0.0
30/02:30pm 26.3 25.0 18.2 61 5.1 NE 22 32 12 17 1012.5 1012.5 0.0
30/02:00pm 25.8 23.6 16.9 58 5.5 NE 24 32 13 17 1012.9 1012.9 0.0
30/01:30pm 25.5 23.2 16.6 58 5.5 ENE 24 32 13 17 1013.4 1013.4 0.0
30/01:00pm 27.0 24.4 16.9 54 6.3 ENE 26 33 14 18 1013.7 1013.7 0.0
30/12:30pm 25.9 23.2 15.6 53 6.3 ENE 24 32 13 17 1014.1 1014.1 0.0
30/12:00pm 25.3 21.9 14.7 51 6.3 ENE 26 32 14 17 1014.5 1014.5 0.0
30/11:30am 25.0 22.8 15.0 53 6.0 ENE 20 26 11 14 1015.1 1015.1 0.0
30/11:00am 25.1 23.2 15.1 53 6.0 ENE 19 26 10 14 1015.3 1015.3 0.0
30/10:30am 24.8 22.7 13.7 50 6.5 NNE 17 22 9 12 1015.7 1015.7 0.0
30/10:00am 24.0 21.2 13.2 50 6.3 N 20 26 11 14 1016.2 1016.2 0.0
30/09:30am 23.2 20.3 13.9 56 5.4 N 22 28 12 15 1016.3 1016.3 0.0
30/09:00am 22.1 20.4 14.7 63 4.4 N 17 24 9 13 1016.4 1016.4 0.0
30/08:30am 20.9 20.1 15.0 69 3.5 N 13 20 7 11 1016.4 1016.4 0.0
30/08:00am 19.6 18.9 15.3 76 2.5 N 13 15 7 8 1016.4 1016.4 0.0
30/07:30am 17.9 17.1 15.2 84 1.6 N 13 15 7 8 1016.3 1016.3 0.0
30/07:00am 16.5 15.8 14.3 87 1.3 N 11 13 6 7 1016.1 1016.1 0.0
30/06:30am 15.2 14.4 13.9 92 0.7 N 11 13 6 7 1016.1 1016.1 0.0
30/06:00am 13.7 13.3 12.9 95 0.4 N 7 11 4 6 1016.0 1016.0 0.0
30/05:30am 12.6 11.8 11.2 91 0.7 N 6 7 3 4 1015.9 1015.9 0.0
30/05:00am 13.4 12.3 12.0 91 0.8 N 9 11 5 6 1015.7 1015.7 0.0
30/04:30am 14.5 13.3 12.7 89 1.0 N 11 13 6 7 1015.6 1015.6 0.0
30/04:00am 15.1 14.0 13.1 88 1.1 N 11 13 6 7 1015.8 1015.8 0.0
30/03:30am 15.0 14.2 13.0 88 1.1 N 9 11 5 6 1015.8 1015.8 0.0
30/03:00am 14.9 13.8 13.1 89 1.0 N 11 13 6 7 1016.0 1016.0 0.0
30/02:30am 14.3 13.5 13.0 92 0.7 N 9 11 5 6 1016.1 1016.1 0.0
30/02:00am 13.5 13.0 12.6 94 0.5 N 7 11 4 6 1016.2 1016.2 0.0
30/01:30am 12.8 13.3 11.5 92 0.7 CALM 0 0 0 0 1016.5 1016.5 0.0
30/01:00am 12.7 13.1 11.3 91 0.7 CALM 0 0 0 0 1016.9 1016.9 0.0
30/12:30am 13.1 13.5 11.3 89 1.0 CALM 0 0 0 0 1017.3 1017.3 0.0
30/12:00am 13.4 13.9 11.6 89 1.0 CALM 0 0 0 0 1017.6 1017.6 0.0
 
Date/Time
EDT
Temp
°C
App
Temp
°C
Dew
Point
Rel
Hum
%
Delta-T
°C
Wind Press
QNH
hPa
Press
MSL
hPa
Rain
since 9 am
mm
Dir
 
Spd
km/h
Gust
km/h
Spd
kts
Gust
kts
29/11:30pm 13.9 14.8 12.8 93 0.6 CALM 0 0 0 0 1017.9 1017.9 0.0
29/11:00pm 14.6 15.6 13.3 92 0.7 CALM 0 0 0 0 1017.9 1017.9 0.0
29/10:30pm 14.2 14.9 12.2 88 1.1 CALM 0 0 0 0 1018.0 1018.0 0.0
29/10:00pm 14.8 14.9 12.8 88 1.1 NNW 4 6 2 3 1018.1 1018.1 0.0
29/09:30pm 15.5 15.5 13.5 88 1.1 NNW 6 7 3 4 1018.1 1018.1 0.0

Other Formats:

Comma delimited format used in spreadsheet applications
http://www.bom.gov.au/fwo/IDN60801/IDN60801.94786.axf

JavaScript Object Notation format (JSON) in row-major order
http://www.bom.gov.au/fwo/IDN60801/IDN60801.94786.json